Milwaukee, Wisconsin
Traffic Map
Current Weather Conditions
Milwaukee, Wisconsin
Overcast
Overcast
50°
Feels Like: 50°
Wind Chill: 50° Ceiling: 1600
Heat Index: 50° Visibility: 10mi
Dew Point: 43° Wind: 15mph
Humidity: 77% Direction: 360° (N)
Pressure: 30.07in Gusts: 18mph
Raw Report DataKMKE 301552Z 36013G16KT 10SM OVC016 10/06 A3007 RMK AO2 SLP185 T01000061
Traffic Incident Summary
Active as of:
Severity:
Category:
InformationThere was an issue retrieving the traffic information for this location. Please try a different location or try again shortly.
Advertisements
Track Severe Weather on mobile